Météo aviation pour un terrain ou une ville
Choisir un ou une

Vous pouvez entrer RAPIDEMENT les premières lettres pour sélectionner

Aéroport choisi : LFCK - CASTRES - MAZAMET
Visibilité




Soleil : Lever à 06:54 Coucher à 20:58
Durée du jour : 14h 4 (-2 minute(s))
Date et heure locale 10/08/2020 01:50
Il fait nuit
Distance Terre - Lune : 404554 kms

Phase actuelle: Dernier quartier
Température
Pression
Humidité
Force du vent
Direction du vent
Temps présent
Ciel Clair

Ensoleillement : 100 %
Heure d'observation : 2020/08/10 01:30. Soit il y a 0 H 20 mn
Décodage METAR, TAF et désign par Philippe Guiraud
METAR : 2020/08/09 23:30 LFCK 092330Z AUTO 10010KT CAVOK 27/17 Q1014
Prévisions (décodage des TAF)
Pas de prévisions (TAF) pour cette station
Historique pour les derniéres 24 heures
Carte satellite actuelle
Satellite Image